Accueil
METAR-TAF:

METAR-TAF

Aéroports :

Aéroport de Roberval

Roberval, Québec, Canada

latitude: 48-31N, longitude: 072-16W, altitude: 179 m

Observation

Le bulletin a été fait il y a 30 heures et 14 minutes, à 00:00 UTC
Vent 7 kt de sud/sud-ouest
Température 22°C
Humidité 60%
Pression 1018 hPa
Visibilité: 40.2 km
Nuages fragmentés à une hauteur de 23000 ft

METAR: CYRJ 210000Z 21007KT 25SM BKN230 22/14 A3007 RMK CI6 SLP185 DENSITY ALT 1400FT

Heure: 02:14 (06:14 UTC)

Prévision

Le bulletin a été fait il y a 16 heures et 36 minutes, à 13:38 UTC
Prévision valable du 20 à 14 UTC au 21 à 02 UTC
Vent 10 kt de sud-ouest avec des rafales jusqu'à 20 kt
Visibilité: 10 km
Nuages épars à une hauteur de 22000 ft
Evoluant progressivement
du 20 à 17 UTC au 20 à 19 UTC
Vent 10 kt de sud/sud-ouest

TAF: CYRJ 201338Z 2014/2102 22010G20KT P6SM SCT220 BECMG 2017/2019 21010KT RMK NXT FCST BY 202000Z

Observations et prévisions météorologiques de plus de 4000 aéroports (messages METAR et TAF).

Les stations disponibles sont représentées par des disques jaunes et rouges sur la carte.

Passer la souris dessus pour voir le nom de la station.

Cliquer dessus pour voir les observations et prévisions météorologiques.

Pour changer de carte: cliquez sur les boutons verts avec une croix noire pour zoomer, sur le bouton vert avec un tiret pour effectuer un zoom arrière, ou sur les flèches vertes pour les cartes adjacentes.


METAR-TAF: